sensor_id;sensor_type;location;lat;lon;timestamp;P1;durP1;ratioP1;P2;durP2;ratioP2
23300;SDS011;11819;51.394;12.340;2022-11-20T00:00:24;24.77;;;13.13;;
23300;SDS011;11819;51.394;12.340;2022-11-20T00:02:49;30.03;;;15.30;;
23300;SDS011;11819;51.394;12.340;2022-11-20T00:05:15;31.97;;;16.27;;
23300;SDS011;11819;51.394;12.340;2022-11-20T00:07:40;25.17;;;13.27;;
23300;SDS011;11819;51.394;12.340;2022-11-20T00:10:06;31.20;;;15.30;;
23300;SDS011;11819;51.394;12.340;2022-11-20T00:12:32;25.67;;;13.73;;
23300;SDS011;11819;51.394;12.340;2022-11-20T00:14:58;33.20;;;16.67;;
23300;SDS011;11819;51.394;12.340;2022-11-20T00:17:23;32.60;;;17.47;;
23300;SDS011;11819;51.394;12.340;2022-11-20T00:19:49;31.63;;;16.17;;
23300;SDS011;11819;51.394;12.340;2022-11-20T00:22:15;30.60;;;14.50;;
23300;SDS011;11819;51.394;12.340;2022-11-20T00:24:40;28.77;;;15.30;;
23300;SDS011;11819;51.394;12.340;2022-11-20T00:27:06;30.80;;;16.90;;
23300;SDS011;11819;51.394;12.340;2022-11-20T00:29:31;32.47;;;17.63;;
23300;SDS011;11819;51.394;12.340;2022-11-20T00:31:57;30.17;;;17.70;;
23300;SDS011;11819;51.394;12.340;2022-11-20T00:34:23;33.37;;;18.07;;
23300;SDS011;11819;51.394;12.340;2022-11-20T00:36:48;34.30;;;16.37;;
23300;SDS011;11819;51.394;12.340;2022-11-20T00:39:14;30.70;;;17.20;;
23300;SDS011;11819;51.394;12.340;2022-11-20T00:41:39;29.40;;;16.57;;
23300;SDS011;11819;51.394;12.340;2022-11-20T00:44:05;34.27;;;16.90;;
23300;SDS011;11819;51.394;12.340;2022-11-20T00:46:31;32.20;;;15.80;;
23300;SDS011;11819;51.394;12.340;2022-11-20T00:48:57;31.80;;;15.90;;
23300;SDS011;11819;51.394;12.340;2022-11-20T00:51:23;31.43;;;17.00;;
23300;SDS011;11819;51.394;12.340;2022-11-20T00:53:50;29.30;;;14.23;;
23300;SDS011;11819;51.394;12.340;2022-11-20T00:56:17;32.77;;;16.47;;
23300;SDS011;11819;51.394;12.340;2022-11-20T00:58:44;30.50;;;16.37;;
23300;SDS011;11819;51.394;12.340;2022-11-20T01:01:15;30.87;;;14.90;;
23300;SDS011;11819;51.394;12.340;2022-11-20T01:03:46;32.00;;;16.73;;
23300;SDS011;11819;51.394;12.340;2022-11-20T01:06:15;27.63;;;15.13;;
23300;SDS011;11819;51.394;12.340;2022-11-20T01:08:45;31.17;;;17.73;;
23300;SDS011;11819;51.394;12.340;2022-11-20T01:11:13;33.17;;;17.13;;
23300;SDS011;11819;51.394;12.340;2022-11-20T01:13:41;33.63;;;17.10;;
23300;SDS011;11819;51.394;12.340;2022-11-20T01:16:10;34.23;;;16.50;;
23300;SDS011;11819;51.394;12.340;2022-11-20T01:18:39;33.20;;;17.53;;
23300;SDS011;11819;51.394;12.340;2022-11-20T01:21:07;29.33;;;17.40;;
23300;SDS011;11819;51.394;12.340;2022-11-20T01:23:38;33.47;;;17.60;;
23300;SDS011;11819;51.394;12.340;2022-11-20T01:26:39;35.93;;;19.10;;
23300;SDS011;11819;51.394;12.340;2022-11-20T01:28:58;27.47;;;14.80;;
23300;SDS011;11819;51.394;12.340;2022-11-20T01:31:26;36.20;;;18.63;;
23300;SDS011;11819;51.394;12.340;2022-11-20T01:33:54;33.70;;;17.57;;
23300;SDS011;11819;51.394;12.340;2022-11-20T01:36:22;30.03;;;16.80;;
23300;SDS011;11819;51.394;12.340;2022-11-20T01:38:57;31.50;;;16.87;;
23300;SDS011;11819;51.394;12.340;2022-11-20T01:41:27;34.03;;;18.60;;
23300;SDS011;11819;51.394;12.340;2022-11-20T01:44:13;35.53;;;18.97;;
23300;SDS011;11819;51.394;12.340;2022-11-20T01:46:42;32.60;;;17.17;;
23300;SDS011;11819;51.394;12.340;2022-11-20T01:49:22;33.00;;;18.00;;
23300;SDS011;11819;51.394;12.340;2022-11-20T01:52:12;34.23;;;18.67;;
23300;SDS011;11819;51.394;12.340;2022-11-20T01:54:43;33.00;;;17.60;;
23300;SDS011;11819;51.394;12.340;2022-11-20T01:57:16;30.73;;;16.43;;
23300;SDS011;11819;51.394;12.340;2022-11-20T01:59:46;30.97;;;17.17;;
23300;SDS011;11819;51.394;12.340;2022-11-20T02:02:18;34.17;;;17.67;;
23300;SDS011;11819;51.394;12.340;2022-11-20T02:04:44;32.07;;;16.87;;
23300;SDS011;11819;51.394;12.340;2022-11-20T02:07:10;33.10;;;17.10;;
23300;SDS011;11819;51.394;12.340;2022-11-20T02:09:36;31.40;;;15.50;;
23300;SDS011;11819;51.394;12.340;2022-11-20T02:12:01;33.37;;;17.57;;
23300;SDS011;11819;51.394;12.340;2022-11-20T02:14:28;32.23;;;16.77;;
23300;SDS011;11819;51.394;12.340;2022-11-20T02:16:54;31.73;;;17.60;;
23300;SDS011;11819;51.394;12.340;2022-11-20T02:22:02;35.87;;;17.80;;
23300;SDS011;11819;51.394;12.340;2022-11-20T02:24:42;33.70;;;17.60;;
23300;SDS011;11819;51.394;12.340;2022-11-20T02:27:14;31.50;;;16.23;;
23300;SDS011;11819;51.394;12.340;2022-11-20T02:32:44;32.40;;;16.43;;
23300;SDS011;11819;51.394;12.340;2022-11-20T02:37:49;31.83;;;15.17;;
23300;SDS011;11819;51.394;12.340;2022-11-20T02:40:18;31.37;;;16.23;;
23300;SDS011;11819;51.394;12.340;2022-11-20T02:42:43;32.30;;;17.50;;
23300;SDS011;11819;51.394;12.340;2022-11-20T02:45:10;31.00;;;16.07;;
23300;SDS011;11819;51.394;12.340;2022-11-20T02:47:36;28.43;;;15.77;;
23300;SDS011;11819;51.394;12.340;2022-11-20T02:50:03;35.30;;;16.73;;
23300;SDS011;11819;51.394;12.340;2022-11-20T02:52:29;21.53;;;11.43;;
23300;SDS011;11819;51.394;12.340;2022-11-20T02:54:55;32.07;;;16.03;;
23300;SDS011;11819;51.394;12.340;2022-11-20T02:57:20;30.30;;;16.53;;
23300;SDS011;11819;51.394;12.340;2022-11-20T02:59:46;29.57;;;16.90;;
23300;SDS011;11819;51.394;12.340;2022-11-20T03:02:12;32.80;;;16.23;;
23300;SDS011;11819;51.394;12.340;2022-11-20T03:04:37;33.17;;;15.67;;
23300;SDS011;11819;51.394;12.340;2022-11-20T03:07:03;37.63;;;16.57;;
23300;SDS011;11819;51.394;12.340;2022-11-20T03:09:29;31.20;;;15.73;;
23300;SDS011;11819;51.394;12.340;2022-11-20T03:11:55;31.30;;;14.60;;
23300;SDS011;11819;51.394;12.340;2022-11-20T03:14:20;32.67;;;15.90;;
23300;SDS011;11819;51.394;12.340;2022-11-20T03:16:46;31.83;;;17.90;;
23300;SDS011;11819;51.394;12.340;2022-11-20T03:19:12;33.07;;;16.50;;
23300;SDS011;11819;51.394;12.340;2022-11-20T03:21:37;32.27;;;15.90;;
23300;SDS011;11819;51.394;12.340;2022-11-20T03:24:03;28.93;;;13.67;;
23300;SDS011;11819;51.394;12.340;2022-11-20T03:26:29;28.03;;;15.23;;
23300;SDS011;11819;51.394;12.340;2022-11-20T03:28:57;31.03;;;15.07;;
23300;SDS011;11819;51.394;12.340;2022-11-20T03:31:25;31.30;;;15.87;;
23300;SDS011;11819;51.394;12.340;2022-11-20T03:33:56;29.47;;;15.57;;
23300;SDS011;11819;51.394;12.340;2022-11-20T03:36:23;32.73;;;16.43;;
23300;SDS011;11819;51.394;12.340;2022-11-20T03:38:48;33.77;;;14.97;;
23300;SDS011;11819;51.394;12.340;2022-11-20T03:41:16;31.83;;;15.43;;
23300;SDS011;11819;51.394;12.340;2022-11-20T03:43:48;37.70;;;17.17;;
23300;SDS011;11819;51.394;12.340;2022-11-20T03:46:14;33.63;;;16.17;;
23300;SDS011;11819;51.394;12.340;2022-11-20T03:48:40;34.03;;;17.10;;
23300;SDS011;11819;51.394;12.340;2022-11-20T03:51:07;38.60;;;17.33;;
23300;SDS011;11819;51.394;12.340;2022-11-20T03:53:33;34.87;;;17.57;;
23300;SDS011;11819;51.394;12.340;2022-11-20T03:55:59;35.97;;;17.57;;
23300;SDS011;11819;51.394;12.340;2022-11-20T03:58:24;33.13;;;17.17;;
23300;SDS011;11819;51.394;12.340;2022-11-20T04:00:50;34.97;;;16.87;;
23300;SDS011;11819;51.394;12.340;2022-11-20T04:03:16;33.73;;;17.23;;
23300;SDS011;11819;51.394;12.340;2022-11-20T04:05:41;32.23;;;15.77;;
23300;SDS011;11819;51.394;12.340;2022-11-20T04:08:07;32.90;;;16.83;;
23300;SDS011;11819;51.394;12.340;2022-11-20T04:10:33;37.27;;;18.03;;
23300;SDS011;11819;51.394;12.340;2022-11-20T04:12:58;35.63;;;18.00;;
23300;SDS011;11819;51.394;12.340;2022-11-20T04:15:24;29.77;;;15.87;;
23300;SDS011;11819;51.394;12.340;2022-11-20T04:17:50;35.23;;;17.37;;
23300;SDS011;11819;51.394;12.340;2022-11-20T04:20:15;32.10;;;16.90;;
23300;SDS011;11819;51.394;12.340;2022-11-20T04:22:41;35.67;;;17.90;;
23300;SDS011;11819;51.394;12.340;2022-11-20T04:25:07;31.27;;;16.00;;
23300;SDS011;11819;51.394;12.340;2022-11-20T04:27:33;34.23;;;17.43;;
23300;SDS011;11819;51.394;12.340;2022-11-20T04:29:58;29.27;;;14.97;;
23300;SDS011;11819;51.394;12.340;2022-11-20T04:32:24;39.20;;;17.77;;
23300;SDS011;11819;51.394;12.340;2022-11-20T04:34:50;37.43;;;17.97;;
23300;SDS011;11819;51.394;12.340;2022-11-20T04:37:15;35.73;;;16.53;;
23300;SDS011;11819;51.394;12.340;2022-11-20T04:39:41;33.67;;;17.87;;
23300;SDS011;11819;51.394;12.340;2022-11-20T04:42:08;34.77;;;17.23;;
23300;SDS011;11819;51.394;12.340;2022-11-20T04:44:53;31.87;;;17.17;;
23300;SDS011;11819;51.394;12.340;2022-11-20T04:47:19;30.13;;;15.90;;
23300;SDS011;11819;51.394;12.340;2022-11-20T04:49:45;35.93;;;16.63;;
23300;SDS011;11819;51.394;12.340;2022-11-20T04:52:11;35.50;;;18.27;;
23300;SDS011;11819;51.394;12.340;2022-11-20T04:54:37;39.20;;;18.73;;
23300;SDS011;11819;51.394;12.340;2022-11-20T04:57:02;33.23;;;16.20;;
23300;SDS011;11819;51.394;12.340;2022-11-20T04:59:28;35.30;;;18.03;;
23300;SDS011;11819;51.394;12.340;2022-11-20T05:01:54;35.67;;;18.30;;
23300;SDS011;11819;51.394;12.340;2022-11-20T05:04:19;35.43;;;18.33;;
23300;SDS011;11819;51.394;12.340;2022-11-20T05:06:45;33.30;;;16.33;;
23300;SDS011;11819;51.394;12.340;2022-11-20T05:09:11;35.47;;;18.30;;
23300;SDS011;11819;51.394;12.340;2022-11-20T05:11:37;37.60;;;18.87;;
23300;SDS011;11819;51.394;12.340;2022-11-20T05:14:03;36.87;;;16.37;;
23300;SDS011;11819;51.394;12.340;2022-11-20T05:16:29;34.93;;;16.97;;
23300;SDS011;11819;51.394;12.340;2022-11-20T05:18:54;38.67;;;18.57;;
23300;SDS011;11819;51.394;12.340;2022-11-20T05:21:20;40.87;;;18.63;;
23300;SDS011;11819;51.394;12.340;2022-11-20T05:23:47;37.23;;;18.07;;
23300;SDS011;11819;51.394;12.340;2022-11-20T05:26:17;37.10;;;17.03;;
23300;SDS011;11819;51.394;12.340;2022-11-20T05:28:44;38.03;;;17.83;;
23300;SDS011;11819;51.394;12.340;2022-11-20T05:31:11;29.03;;;14.13;;
23300;SDS011;11819;51.394;12.340;2022-11-20T05:33:41;34.60;;;17.40;;
23300;SDS011;11819;51.394;12.340;2022-11-20T05:36:08;36.70;;;17.87;;
23300;SDS011;11819;51.394;12.340;2022-11-20T05:38:35;36.40;;;16.37;;
23300;SDS011;11819;51.394;12.340;2022-11-20T05:41:08;40.40;;;17.60;;
23300;SDS011;11819;51.394;12.340;2022-11-20T05:43:39;40.03;;;18.67;;
23300;SDS011;11819;51.394;12.340;2022-11-20T05:46:07;39.70;;;19.40;;
23300;SDS011;11819;51.394;12.340;2022-11-20T05:48:35;42.67;;;20.27;;
23300;SDS011;11819;51.394;12.340;2022-11-20T05:51:02;41.10;;;17.37;;
23300;SDS011;11819;51.394;12.340;2022-11-20T05:53:30;37.57;;;16.60;;
23300;SDS011;11819;51.394;12.340;2022-11-20T05:56:00;41.80;;;19.20;;
23300;SDS011;11819;51.394;12.340;2022-11-20T05:58:35;31.33;;;14.67;;
23300;SDS011;11819;51.394;12.340;2022-11-20T06:01:06;37.77;;;18.07;;
23300;SDS011;11819;51.394;12.340;2022-11-20T06:03:37;36.30;;;17.47;;
23300;SDS011;11819;51.394;12.340;2022-11-20T06:06:04;38.63;;;19.03;;
23300;SDS011;11819;51.394;12.340;2022-11-20T06:08:31;37.03;;;15.53;;
23300;SDS011;11819;51.394;12.340;2022-11-20T06:10:57;40.50;;;18.80;;
23300;SDS011;11819;51.394;12.340;2022-11-20T06:13:22;37.10;;;16.67;;
23300;SDS011;11819;51.394;12.340;2022-11-20T06:15:52;33.60;;;15.43;;
23300;SDS011;11819;51.394;12.340;2022-11-20T06:18:18;35.27;;;17.47;;
23300;SDS011;11819;51.394;12.340;2022-11-20T06:20:45;41.40;;;18.23;;
23300;SDS011;11819;51.394;12.340;2022-11-20T06:23:11;35.27;;;17.60;;
23300;SDS011;11819;51.394;12.340;2022-11-20T06:25:37;39.37;;;18.07;;
23300;SDS011;11819;51.394;12.340;2022-11-20T06:28:04;34.10;;;16.27;;
23300;SDS011;11819;51.394;12.340;2022-11-20T06:30:29;37.37;;;16.13;;
23300;SDS011;11819;51.394;12.340;2022-11-20T06:32:55;40.47;;;17.63;;
23300;SDS011;11819;51.394;12.340;2022-11-20T06:35:20;41.53;;;18.07;;
23300;SDS011;11819;51.394;12.340;2022-11-20T06:37:46;37.80;;;17.00;;
23300;SDS011;11819;51.394;12.340;2022-11-20T06:40:12;39.03;;;16.67;;
23300;SDS011;11819;51.394;12.340;2022-11-20T06:42:38;28.63;;;13.97;;
23300;SDS011;11819;51.394;12.340;2022-11-20T06:45:03;35.80;;;17.70;;
23300;SDS011;11819;51.394;12.340;2022-11-20T06:47:29;36.60;;;17.00;;
23300;SDS011;11819;51.394;12.340;2022-11-20T06:49:55;38.20;;;17.13;;
23300;SDS011;11819;51.394;12.340;2022-11-20T06:52:20;40.43;;;18.17;;
23300;SDS011;11819;51.394;12.340;2022-11-20T06:54:46;39.23;;;17.80;;
23300;SDS011;11819;51.394;12.340;2022-11-20T06:57:12;42.43;;;18.03;;
23300;SDS011;11819;51.394;12.340;2022-11-20T06:59:37;53.80;;;23.43;;
23300;SDS011;11819;51.394;12.340;2022-11-20T07:02:03;42.17;;;17.40;;
23300;SDS011;11819;51.394;12.340;2022-11-20T07:04:29;38.47;;;17.33;;
23300;SDS011;11819;51.394;12.340;2022-11-20T07:06:54;40.33;;;18.67;;
23300;SDS011;11819;51.394;12.340;2022-11-20T07:09:20;33.77;;;15.73;;
23300;SDS011;11819;51.394;12.340;2022-11-20T07:11:46;44.00;;;20.93;;
23300;SDS011;11819;51.394;12.340;2022-11-20T07:14:11;42.90;;;20.57;;
23300;SDS011;11819;51.394;12.340;2022-11-20T07:16:37;35.13;;;16.33;;
23300;SDS011;11819;51.394;12.340;2022-11-20T07:19:02;36.13;;;17.07;;
23300;SDS011;11819;51.394;12.340;2022-11-20T07:21:28;36.03;;;18.63;;
23300;SDS011;11819;51.394;12.340;2022-11-20T07:23:54;37.17;;;17.23;;
23300;SDS011;11819;51.394;12.340;2022-11-20T07:26:20;44.70;;;20.70;;
23300;SDS011;11819;51.394;12.340;2022-11-20T07:28:45;32.97;;;17.60;;
23300;SDS011;11819;51.394;12.340;2022-11-20T07:31:11;34.03;;;15.63;;
23300;SDS011;11819;51.394;12.340;2022-11-20T07:33:38;34.07;;;16.00;;
23300;SDS011;11819;51.394;12.340;2022-11-20T07:36:04;36.60;;;18.13;;
23300;SDS011;11819;51.394;12.340;2022-11-20T07:38:30;28.13;;;13.37;;
23300;SDS011;11819;51.394;12.340;2022-11-20T07:40:56;33.47;;;17.63;;
23300;SDS011;11819;51.394;12.340;2022-11-20T07:43:22;16.93;;;9.57;;
23300;SDS011;11819;51.394;12.340;2022-11-20T07:45:49;28.97;;;13.80;;
23300;SDS011;11819;51.394;12.340;2022-11-20T07:48:14;27.10;;;14.50;;
23300;SDS011;11819;51.394;12.340;2022-11-20T07:50:40;39.87;;;18.70;;
23300;SDS011;11819;51.394;12.340;2022-11-20T07:53:06;37.30;;;18.63;;
23300;SDS011;11819;51.394;12.340;2022-11-20T07:55:32;28.17;;;13.93;;
23300;SDS011;11819;51.394;12.340;2022-11-20T07:57:58;31.53;;;16.03;;
23300;SDS011;11819;51.394;12.340;2022-11-20T08:00:24;31.57;;;15.33;;
23300;SDS011;11819;51.394;12.340;2022-11-20T08:02:50;36.00;;;18.83;;
23300;SDS011;11819;51.394;12.340;2022-11-20T08:05:16;24.90;;;13.17;;
23300;SDS011;11819;51.394;12.340;2022-11-20T08:07:42;21.23;;;10.10;;
23300;SDS011;11819;51.394;12.340;2022-11-20T08:10:09;17.27;;;9.33;;
23300;SDS011;11819;51.394;12.340;2022-11-20T08:12:42;32.53;;;16.00;;
23300;SDS011;11819;51.394;12.340;2022-11-20T08:15:28;31.13;;;12.50;;
23300;SDS011;11819;51.394;12.340;2022-11-20T08:17:59;24.30;;;11.43;;
23300;SDS011;11819;51.394;12.340;2022-11-20T08:20:26;44.40;;;20.87;;
23300;SDS011;11819;51.394;12.340;2022-11-20T08:22:51;26.80;;;13.17;;
23300;SDS011;11819;51.394;12.340;2022-11-20T08:25:17;44.67;;;21.07;;
23300;SDS011;11819;51.394;12.340;2022-11-20T08:27:43;39.63;;;21.53;;
23300;SDS011;11819;51.394;12.340;2022-11-20T08:30:09;32.13;;;16.93;;
23300;SDS011;11819;51.394;12.340;2022-11-20T08:32:35;32.23;;;15.90;;
23300;SDS011;11819;51.394;12.340;2022-11-20T08:35:02;36.90;;;15.97;;
23300;SDS011;11819;51.394;12.340;2022-11-20T08:37:28;27.07;;;12.33;;
23300;SDS011;11819;51.394;12.340;2022-11-20T08:39:53;27.10;;;12.90;;
23300;SDS011;11819;51.394;12.340;2022-11-20T08:42:21;26.57;;;14.53;;
23300;SDS011;11819;51.394;12.340;2022-11-20T08:44:47;22.27;;;11.33;;
23300;SDS011;11819;51.394;12.340;2022-11-20T08:47:13;18.77;;;11.23;;
23300;SDS011;11819;51.394;12.340;2022-11-20T08:49:38;31.13;;;14.93;;
23300;SDS011;11819;51.394;12.340;2022-11-20T08:52:04;25.50;;;13.53;;
23300;SDS011;11819;51.394;12.340;2022-11-20T08:54:30;40.27;;;19.83;;
23300;SDS011;11819;51.394;12.340;2022-11-20T08:56:56;33.43;;;15.03;;
23300;SDS011;11819;51.394;12.340;2022-11-20T08:59:21;32.13;;;17.43;;
23300;SDS011;11819;51.394;12.340;2022-11-20T09:01:49;45.10;;;21.17;;
23300;SDS011;11819;51.394;12.340;2022-11-20T09:04:15;40.87;;;21.57;;
23300;SDS011;11819;51.394;12.340;2022-11-20T09:06:41;22.53;;;11.27;;
23300;SDS011;11819;51.394;12.340;2022-11-20T09:09:06;51.33;;;28.23;;
23300;SDS011;11819;51.394;12.340;2022-11-20T09:11:32;44.83;;;23.83;;
23300;SDS011;11819;51.394;12.340;2022-11-20T09:13:59;31.37;;;16.30;;
23300;SDS011;11819;51.394;12.340;2022-11-20T09:16:25;30.00;;;16.20;;
23300;SDS011;11819;51.394;12.340;2022-11-20T09:18:50;44.60;;;22.33;;
23300;SDS011;11819;51.394;12.340;2022-11-20T09:21:16;38.43;;;19.17;;
23300;SDS011;11819;51.394;12.340;2022-11-20T09:23:43;41.40;;;19.43;;
23300;SDS011;11819;51.394;12.340;2022-11-20T09:26:13;38.67;;;20.77;;
23300;SDS011;11819;51.394;12.340;2022-11-20T09:28:40;39.43;;;19.50;;
23300;SDS011;11819;51.394;12.340;2022-11-20T09:31:13;34.67;;;17.70;;
23300;SDS011;11819;51.394;12.340;2022-11-20T09:33:48;34.83;;;18.40;;
23300;SDS011;11819;51.394;12.340;2022-11-20T09:36:14;35.80;;;17.87;;
23300;SDS011;11819;51.394;12.340;2022-11-20T09:38:41;24.37;;;11.70;;
23300;SDS011;11819;51.394;12.340;2022-11-20T09:41:06;19.77;;;11.13;;
23300;SDS011;11819;51.394;12.340;2022-11-20T09:49:12;28.03;;;13.67;;
23300;SDS011;11819;51.394;12.340;2022-11-20T09:51:58;28.53;;;15.37;;
23300;SDS011;11819;51.394;12.340;2022-11-20T09:54:32;39.23;;;20.50;;
23300;SDS011;11819;51.394;12.340;2022-11-20T09:57:03;33.43;;;15.97;;
23300;SDS011;11819;51.394;12.340;2022-11-20T09:59:37;30.00;;;15.13;;
23300;SDS011;11819;51.394;12.340;2022-11-20T10:04:51;32.20;;;16.07;;
23300;SDS011;11819;51.394;12.340;2022-11-20T10:10:25;25.80;;;11.67;;
23300;SDS011;11819;51.394;12.340;2022-11-20T10:15:43;40.43;;;20.93;;
23300;SDS011;11819;51.394;12.340;2022-11-20T10:18:50;23.70;;;11.27;;
23300;SDS011;11819;51.394;12.340;2022-11-20T10:27:06;28.23;;;14.73;;
23300;SDS011;11819;51.394;12.340;2022-11-20T10:29:52;38.80;;;17.70;;
23300;SDS011;11819;51.394;12.340;2022-11-20T10:32:29;32.50;;;15.10;;
23300;SDS011;11819;51.394;12.340;2022-11-20T10:37:44;34.90;;;15.00;;
23300;SDS011;11819;51.394;12.340;2022-11-20T10:43:11;23.07;;;12.07;;
23300;SDS011;11819;51.394;12.340;2022-11-20T10:48:17;37.43;;;16.53;;
23300;SDS011;11819;51.394;12.340;2022-11-20T10:56:42;38.17;;;19.80;;
23300;SDS011;11819;51.394;12.340;2022-11-20T11:02:21;36.70;;;18.67;;
23300;SDS011;11819;51.394;12.340;2022-11-20T11:04:49;35.60;;;18.73;;
23300;SDS011;11819;51.394;12.340;2022-11-20T11:07:17;26.90;;;14.17;;
23300;SDS011;11819;51.394;12.340;2022-11-20T11:09:48;36.43;;;18.87;;
23300;SDS011;11819;51.394;12.340;2022-11-20T11:12:16;36.23;;;18.40;;
23300;SDS011;11819;51.394;12.340;2022-11-20T11:14:44;28.57;;;15.07;;
23300;SDS011;11819;51.394;12.340;2022-11-20T11:22:33;24.13;;;13.10;;
23300;SDS011;11819;51.394;12.340;2022-11-20T11:25:07;26.90;;;11.17;;
23300;SDS011;11819;51.394;12.340;2022-11-20T11:27:51;25.27;;;12.57;;
23300;SDS011;11819;51.394;12.340;2022-11-20T11:30:21;19.10;;;8.43;;
23300;SDS011;11819;51.394;12.340;2022-11-20T11:32:48;25.97;;;13.13;;
23300;SDS011;11819;51.394;12.340;2022-11-20T11:35:24;19.40;;;9.60;;
23300;SDS011;11819;51.394;12.340;2022-11-20T11:37:53;25.77;;;12.97;;
23300;SDS011;11819;51.394;12.340;2022-11-20T11:40:27;24.80;;;12.53;;
23300;SDS011;11819;51.394;12.340;2022-11-20T11:42:57;17.23;;;9.20;;
23300;SDS011;11819;51.394;12.340;2022-11-20T11:45:26;20.43;;;11.03;;
23300;SDS011;11819;51.394;12.340;2022-11-20T11:47:53;32.57;;;18.13;;
23300;SDS011;11819;51.394;12.340;2022-11-20T11:50:22;27.97;;;13.90;;
23300;SDS011;11819;51.394;12.340;2022-11-20T11:55:48;23.73;;;13.77;;
23300;SDS011;11819;51.394;12.340;2022-11-20T12:00:58;19.00;;;9.77;;
23300;SDS011;11819;51.394;12.340;2022-11-20T12:03:36;26.33;;;13.80;;
23300;SDS011;11819;51.394;12.340;2022-11-20T12:06:10;26.40;;;12.70;;
23300;SDS011;11819;51.394;12.340;2022-11-20T12:16:56;14.17;;;7.30;;
23300;SDS011;11819;51.394;12.340;2022-11-20T12:19:22;23.80;;;11.93;;
23300;SDS011;11819;51.394;12.340;2022-11-20T12:24:57;25.20;;;12.43;;
23300;SDS011;11819;51.394;12.340;2022-11-20T12:27:51;14.43;;;9.30;;
23300;SDS011;11819;51.394;12.340;2022-11-20T12:30:31;16.10;;;8.03;;
23300;SDS011;11819;51.394;12.340;2022-11-20T12:36:07;24.53;;;11.33;;
23300;SDS011;11819;51.394;12.340;2022-11-20T12:47:29;25.50;;;12.60;;
23300;SDS011;11819;51.394;12.340;2022-11-20T12:52:42;18.83;;;10.13;;
23300;SDS011;11819;51.394;12.340;2022-11-20T12:55:28;28.37;;;15.43;;
23300;SDS011;11819;51.394;12.340;2022-11-20T12:58:04;18.43;;;10.80;;
23300;SDS011;11819;51.394;12.340;2022-11-20T13:00:37;18.17;;;8.50;;
23300;SDS011;11819;51.394;12.340;2022-11-20T13:08:13;23.23;;;12.83;;
23300;SDS011;11819;51.394;12.340;2022-11-20T13:13:32;27.53;;;14.63;;
23300;SDS011;11819;51.394;12.340;2022-11-20T13:16:23;22.63;;;11.90;;
23300;SDS011;11819;51.394;12.340;2022-11-20T13:18:56;20.03;;;12.43;;
23300;SDS011;11819;51.394;12.340;2022-11-20T13:21:39;23.53;;;14.47;;
23300;SDS011;11819;51.394;12.340;2022-11-20T13:29:26;26.60;;;13.30;;
23300;SDS011;11819;51.394;12.340;2022-11-20T13:32:00;21.37;;;10.70;;
23300;SDS011;11819;51.394;12.340;2022-11-20T13:34:51;23.63;;;12.93;;
23300;SDS011;11819;51.394;12.340;2022-11-20T13:40:24;20.77;;;11.13;;
23300;SDS011;11819;51.394;12.340;2022-11-20T13:45:36;21.17;;;10.53;;
23300;SDS011;11819;51.394;12.340;2022-11-20T13:48:16;22.93;;;11.80;;
23300;SDS011;11819;51.394;12.340;2022-11-20T13:50:57;19.20;;;10.93;;
23300;SDS011;11819;51.394;12.340;2022-11-20T13:53:43;17.07;;;9.53;;
23300;SDS011;11819;51.394;12.340;2022-11-20T13:56:59;21.30;;;10.73;;
23300;SDS011;11819;51.394;12.340;2022-11-20T14:01:53;23.97;;;12.37;;
23300;SDS011;11819;51.394;12.340;2022-11-20T14:04:25;20.53;;;12.77;;
23300;SDS011;11819;51.394;12.340;2022-11-20T14:06:54;25.73;;;12.30;;
23300;SDS011;11819;51.394;12.340;2022-11-20T14:09:28;21.20;;;12.80;;
23300;SDS011;11819;51.394;12.340;2022-11-20T14:11:55;21.50;;;12.07;;
23300;SDS011;11819;51.394;12.340;2022-11-20T14:14:22;21.77;;;12.60;;
23300;SDS011;11819;51.394;12.340;2022-11-20T14:16:50;22.70;;;11.93;;
23300;SDS011;11819;51.394;12.340;2022-11-20T14:19:21;24.73;;;12.33;;
23300;SDS011;11819;51.394;12.340;2022-11-20T14:22:38;23.40;;;14.03;;
23300;SDS011;11819;51.394;12.340;2022-11-20T14:24:46;17.23;;;9.17;;
23300;SDS011;11819;51.394;12.340;2022-11-20T14:27:18;15.77;;;8.70;;
23300;SDS011;11819;51.394;12.340;2022-11-20T14:29:46;20.03;;;11.60;;
23300;SDS011;11819;51.394;12.340;2022-11-20T14:32:15;22.73;;;12.10;;
23300;SDS011;11819;51.394;12.340;2022-11-20T14:34:43;20.47;;;11.20;;
23300;SDS011;11819;51.394;12.340;2022-11-20T14:37:11;21.97;;;13.37;;
23300;SDS011;11819;51.394;12.340;2022-11-20T14:39:42;23.20;;;12.77;;
23300;SDS011;11819;51.394;12.340;2022-11-20T14:42:17;18.83;;;10.67;;
23300;SDS011;11819;51.394;12.340;2022-11-20T14:44:44;18.93;;;10.23;;
23300;SDS011;11819;51.394;12.340;2022-11-20T14:47:11;19.83;;;12.73;;
23300;SDS011;11819;51.394;12.340;2022-11-20T14:49:38;21.27;;;12.63;;
23300;SDS011;11819;51.394;12.340;2022-11-20T14:52:13;20.17;;;11.47;;
23300;SDS011;11819;51.394;12.340;2022-11-20T14:54:44;18.00;;;9.70;;
23300;SDS011;11819;51.394;12.340;2022-11-20T15:00:07;18.77;;;10.37;;
23300;SDS011;11819;51.394;12.340;2022-11-20T15:02:43;20.17;;;9.30;;
23300;SDS011;11819;51.394;12.340;2022-11-20T15:05:10;17.13;;;9.70;;
23300;SDS011;11819;51.394;12.340;2022-11-20T15:07:37;17.20;;;9.50;;
23300;SDS011;11819;51.394;12.340;2022-11-20T15:12:51;22.07;;;10.53;;
23300;SDS011;11819;51.394;12.340;2022-11-20T15:15:47;19.50;;;9.70;;
23300;SDS011;11819;51.394;12.340;2022-11-20T15:18:19;16.47;;;9.03;;
23300;SDS011;11819;51.394;12.340;2022-11-20T15:20:47;21.70;;;10.50;;
23300;SDS011;11819;51.394;12.340;2022-11-20T15:23:14;18.53;;;9.90;;
23300;SDS011;11819;51.394;12.340;2022-11-20T15:25:43;19.83;;;11.30;;
23300;SDS011;11819;51.394;12.340;2022-11-20T15:30:47;24.77;;;12.80;;
23300;SDS011;11819;51.394;12.340;2022-11-20T15:33:14;19.50;;;10.33;;
23300;SDS011;11819;51.394;12.340;2022-11-20T15:35:41;22.23;;;12.60;;
23300;SDS011;11819;51.394;12.340;2022-11-20T15:38:07;21.37;;;12.70;;
23300;SDS011;11819;51.394;12.340;2022-11-20T15:40:33;26.10;;;14.03;;
23300;SDS011;11819;51.394;12.340;2022-11-20T15:42:59;25.70;;;15.13;;
23300;SDS011;11819;51.394;12.340;2022-11-20T15:45:28;25.27;;;13.93;;
23300;SDS011;11819;51.394;12.340;2022-11-20T15:48:08;26.13;;;13.70;;
23300;SDS011;11819;51.394;12.340;2022-11-20T15:50:38;29.20;;;14.60;;
23300;SDS011;11819;51.394;12.340;2022-11-20T15:53:09;25.57;;;14.20;;
23300;SDS011;11819;51.394;12.340;2022-11-20T15:55:35;33.63;;;18.63;;
23300;SDS011;11819;51.394;12.340;2022-11-20T15:58:00;26.03;;;14.73;;
23300;SDS011;11819;51.394;12.340;2022-11-20T16:00:26;27.63;;;17.03;;
23300;SDS011;11819;51.394;12.340;2022-11-20T16:02:52;28.83;;;16.97;;
23300;SDS011;11819;51.394;12.340;2022-11-20T16:05:17;25.00;;;14.10;;
23300;SDS011;11819;51.394;12.340;2022-11-20T16:07:43;25.53;;;14.20;;
23300;SDS011;11819;51.394;12.340;2022-11-20T16:10:09;20.63;;;11.40;;